createdAt,value
2022-10-18T00:01:10.057Z,102510.27
2022-10-18T00:03:46.571Z,102514.98
2022-10-18T00:06:18.689Z,102512.29
2022-10-18T00:08:50.769Z,102510.14
2022-10-18T00:11:23.381Z,102510.73
2022-10-18T00:13:56.909Z,102512.41
2022-10-18T00:16:29.106Z,102507.61
2022-10-18T00:19:01.232Z,102508.98
2022-10-18T00:21:33.416Z,102506.50
2022-10-18T00:24:08.265Z,102500.09
2022-10-18T00:26:40.357Z,102499.53
2022-10-18T00:29:16.876Z,102498.19
2022-10-18T00:31:49.025Z,102493.67
2022-10-18T00:34:21.117Z,102492.44
2022-10-18T00:36:53.220Z,102491.20
2022-10-18T00:39:25.641Z,102485.17
2022-10-18T00:41:57.770Z,102482.41
2022-10-18T00:45:04.222Z,102483.41
2022-10-18T00:47:38.021Z,102486.73
2022-10-18T00:50:11.724Z,102479.94
2022-10-18T00:52:47.162Z,102480.05
2022-10-18T00:55:19.556Z,102480.05
2022-10-18T00:57:52.483Z,102478.66
2022-10-18T01:00:24.900Z,102477.46
2022-10-18T01:02:57.456Z,102476.59
2022-10-18T01:05:29.932Z,102475.61
2022-10-18T01:08:46.849Z,102473.38
2022-10-18T01:11:52.433Z,102469.62
2022-10-18T01:14:39.902Z,102467.11
2022-10-18T01:17:19.464Z,102464.48
2022-10-18T01:20:20.933Z,102458.27
2022-10-18T01:22:58.596Z,102461.55
2022-10-18T01:25:48.004Z,102456.31
2022-10-18T01:28:33.361Z,102456.88
2022-10-18T01:31:08.184Z,102453.91
2022-10-18T01:33:44.253Z,102445.24
2022-10-18T01:36:22.452Z,102450.06
2022-10-18T01:38:58.781Z,102446.41
2022-10-18T01:41:31.592Z,102447.51
2022-10-18T01:44:08.057Z,102444.21
2022-10-18T01:46:41.181Z,102441.48
2022-10-18T01:49:13.265Z,102443.64
2022-10-18T01:51:45.327Z,102442.91
2022-10-18T01:54:23.502Z,102447.81
2022-10-18T01:56:59.876Z,102444.38
2022-10-18T01:59:41.063Z,102445.95
2022-10-18T02:02:26.415Z,102444.22
2022-10-18T02:05:04.672Z,102443.02
2022-10-18T02:07:43.814Z,102442.59
2022-10-18T02:10:19.966Z,102437.38
2022-10-18T02:12:55.393Z,102439.81
2022-10-18T02:15:31.395Z,102448.27
2022-10-18T02:18:06.982Z,102445.77
2022-10-18T02:20:40.080Z,102448.27
2022-10-18T02:23:15.421Z,102441.05
2022-10-18T02:25:47.805Z,102440.42
2022-10-18T02:28:20.290Z,102438.08
2022-10-18T02:31:00.274Z,102439.95
2022-10-18T02:33:39.445Z,102437.71
2022-10-18T02:36:16.610Z,102437.72
2022-10-18T02:38:49.592Z,102438.27
2022-10-18T02:41:27.731Z,102434.67
2022-10-18T02:43:59.874Z,102445.35
2022-10-18T02:46:32.025Z,102441.75
2022-10-18T02:49:04.341Z,102440.61
2022-10-18T02:51:36.477Z,102439.48
2022-10-18T02:54:09.611Z,102438.89
2022-10-18T02:56:41.812Z,102438.27
2022-10-18T02:59:14.285Z,102428.95
2022-10-18T03:01:46.475Z,102441.43
2022-10-18T03:04:18.647Z,102437.98
2022-10-18T03:06:50.778Z,102443.38
2022-10-18T03:09:22.936Z,102439.48
2022-10-18T03:11:55.048Z,102439.92
2022-10-18T03:14:27.314Z,102444.12
2022-10-18T03:16:59.435Z,102439.98
2022-10-18T03:19:31.852Z,102444.89
2022-10-18T03:22:04.000Z,102440.30
2022-10-18T03:24:36.286Z,102435.67
2022-10-18T03:27:08.384Z,102443.66
2022-10-18T03:29:40.780Z,102444.23
2022-10-18T03:32:12.892Z,102441.39
2022-10-18T03:34:45.014Z,102432.87
2022-10-18T03:37:17.564Z,102434.79
2022-10-18T03:39:49.792Z,102433.60
2022-10-18T03:42:22.261Z,102431.86
2022-10-18T03:44:54.465Z,102434.24
2022-10-18T03:47:26.652Z,102439.80
2022-10-18T03:50:00.137Z,102436.92
2022-10-18T03:52:32.619Z,102430.24
2022-10-18T03:55:05.331Z,102439.02
2022-10-18T03:57:37.441Z,102437.59
2022-10-18T04:00:12.711Z,102435.38
2022-10-18T04:02:44.825Z,102435.45
2022-10-18T04:05:17.047Z,102437.02
2022-10-18T04:07:49.549Z,102443.32
2022-10-18T04:10:21.789Z,102441.41
2022-10-18T04:12:54.023Z,102437.17
2022-10-18T04:15:26.104Z,102435.40
2022-10-18T04:17:58.520Z,102435.86
2022-10-18T04:20:30.766Z,102435.23
2022-10-18T04:23:03.048Z,102430.55
2022-10-18T04:25:35.287Z,102431.60
2022-10-18T04:28:07.702Z,102433.30
2022-10-18T04:30:40.018Z,102430.69
2022-10-18T04:33:12.230Z,102430.00
2022-10-18T04:35:44.445Z,102427.15
2022-10-18T04:38:16.516Z,102418.11
2022-10-18T04:40:48.788Z,102429.05
2022-10-18T04:43:21.013Z,102423.31
2022-10-18T04:45:53.248Z,102427.82
2022-10-18T04:48:25.492Z,102426.65
2022-10-18T04:50:57.626Z,102426.96
2022-10-18T04:53:29.765Z,102427.59
2022-10-18T04:56:01.936Z,102427.66
2022-10-18T04:58:34.148Z,102429.50
2022-10-18T05:01:09.198Z,102430.38
2022-10-18T05:03:41.556Z,102418.00
2022-10-18T05:06:13.691Z,102430.84
2022-10-18T05:08:45.993Z,102415.54
2022-10-18T05:11:18.135Z,102426.48
2022-10-18T05:13:51.002Z,102429.80
2022-10-18T05:16:23.431Z,102424.95
2022-10-18T05:18:55.559Z,102426.78
2022-10-18T05:21:27.726Z,102424.84
2022-10-18T05:23:59.959Z,102425.14
2022-10-18T05:26:32.095Z,102414.74
2022-10-18T05:29:04.707Z,102427.05
2022-10-18T05:31:37.009Z,102419.02
2022-10-18T05:34:09.137Z,102433.39
2022-10-18T05:36:41.653Z,102438.84
2022-10-18T05:39:14.031Z,102441.29
2022-10-18T05:41:46.271Z,102438.48
2022-10-18T05:44:18.722Z,102436.96
2022-10-18T05:46:51.215Z,102428.06
2022-10-18T05:49:23.754Z,102435.50
2022-10-18T05:51:56.187Z,102436.15
2022-10-18T05:54:28.357Z,102435.80
2022-10-18T05:57:00.526Z,102436.89
2022-10-18T05:59:32.749Z,102438.31
2022-10-18T06:02:05.402Z,102435.78
2022-10-18T06:04:37.579Z,102440.65
2022-10-18T06:07:12.683Z,102447.80
2022-10-18T06:09:44.814Z,102446.78
2022-10-18T06:12:17.014Z,102448.93
2022-10-18T06:14:49.589Z,102450.20
2022-10-18T06:17:21.898Z,102452.13
2022-10-18T06:19:54.021Z,102454.92
2022-10-18T06:22:26.149Z,102447.65
2022-10-18T06:24:58.266Z,102461.85
2022-10-18T06:27:31.865Z,102456.16
2022-10-18T06:30:05.133Z,102458.65
2022-10-18T06:32:37.362Z,102457.56
2022-10-18T06:35:11.057Z,102459.67
2022-10-18T06:40:20.670Z,102453.63
2022-10-18T06:43:00.298Z,102453.27
2022-10-18T06:45:38.076Z,102452.14
2022-10-18T06:48:10.640Z,102451.50
2022-10-18T06:50:42.936Z,102440.56
2022-10-18T06:53:15.013Z,102441.81
2022-10-18T06:55:47.823Z,102447.16
2022-10-18T06:58:20.144Z,102444.92
2022-10-18T07:00:52.508Z,102443.45
2022-10-18T07:03:24.704Z,102437.73
2022-10-18T07:06:01.448Z,102437.23
2022-10-18T07:08:34.991Z,102436.71
2022-10-18T07:11:08.368Z,102438.42
2022-10-18T07:13:40.626Z,102436.67
2022-10-18T07:16:18.242Z,102444.20
2022-10-18T07:18:53.184Z,102439.10
2022-10-18T07:21:26.779Z,102443.14
2022-10-18T07:24:00.284Z,102442.81
2022-10-18T07:26:34.303Z,102441.81
2022-10-18T07:29:09.681Z,102441.75
2022-10-18T07:31:41.869Z,102437.97
2022-10-18T07:34:17.692Z,102437.84
2022-10-18T07:36:48.171Z,102427.60
2022-10-18T07:39:20.315Z,102425.88
2022-10-18T07:41:52.412Z,102428.42
2022-10-18T07:44:24.795Z,102421.36
2022-10-18T07:46:57.243Z,102417.94
2022-10-18T07:49:29.330Z,102420.77
2022-10-18T07:52:01.528Z,102425.36
2022-10-18T07:54:33.676Z,102420.39
2022-10-18T07:57:06.821Z,102421.55
2022-10-18T07:59:39.450Z,102417.97
2022-10-18T08:02:12.229Z,102414.41
2022-10-18T08:04:44.387Z,102410.52
2022-10-18T08:07:16.470Z,102410.77
2022-10-18T08:09:48.704Z,102409.52
2022-10-18T08:12:20.847Z,102405.11
2022-10-18T08:14:52.912Z,102406.39
2022-10-18T08:17:24.971Z,102404.67
2022-10-18T08:20:12.065Z,102401.13
2022-10-18T08:22:55.471Z,102391.13
2022-10-18T08:25:31.929Z,102389.39
2022-10-18T08:28:04.084Z,102391.39
2022-10-18T08:30:37.275Z,102391.43
2022-10-18T08:33:09.429Z,102387.85
2022-10-18T08:35:41.580Z,102382.48
2022-10-18T08:38:18.015Z,102381.61
2022-10-18T08:40:51.468Z,102381.09
2022-10-18T08:46:15.255Z,102375.47
2022-10-18T08:48:51.210Z,102374.27
2022-10-18T08:51:46.527Z,102365.84
2022-10-18T08:54:23.689Z,102364.77
2022-10-18T08:57:01.904Z,102366.92
2022-10-18T08:59:39.583Z,102369.72
2022-10-18T09:02:25.079Z,102368.99
2022-10-18T09:05:05.561Z,102360.55
2022-10-18T09:08:15.617Z,102357.71
2022-10-18T09:14:07.864Z,102345.60
2022-10-18T09:16:47.011Z,102344.52
2022-10-18T09:19:32.839Z,102336.85
2022-10-18T09:22:09.710Z,102332.52
2022-10-18T09:24:47.227Z,102333.75
2022-10-18T09:27:21.468Z,102330.45
2022-10-18T09:30:05.140Z,102324.02
2022-10-18T09:32:51.801Z,102322.89
2022-10-18T09:35:27.337Z,102314.02
2022-10-18T09:38:06.828Z,102311.12
2022-10-18T09:40:47.174Z,102309.73
2022-10-18T09:43:24.228Z,102305.32
2022-10-18T09:45:58.033Z,102298.73
2022-10-18T09:48:38.354Z,102292.52
2022-10-18T09:51:13.747Z,102294.36
2022-10-18T09:53:58.109Z,102295.15
2022-10-18T09:56:39.308Z,102291.09
2022-10-18T09:59:33.673Z,102289.10
2022-10-18T10:02:06.670Z,102285.33
2022-10-18T10:04:38.768Z,102282.70
2022-10-18T10:07:15.995Z,102280.13
2022-10-18T10:09:50.190Z,102276.84
2022-10-18T10:12:33.648Z,102273.71
2022-10-18T10:15:20.554Z,102258.55
2022-10-18T10:18:01.949Z,102253.77
2022-10-18T10:20:38.305Z,102249.80
2022-10-18T10:25:55.934Z,102238.48
2022-10-18T10:28:32.488Z,102238.18
2022-10-18T10:31:27.956Z,102234.19
2022-10-18T10:34:05.945Z,102226.02
2022-10-18T10:36:50.090Z,102224.55
2022-10-18T10:39:24.371Z,102218.00
2022-10-18T10:41:58.368Z,102211.45
2022-10-18T10:44:33.568Z,102209.10
2022-10-18T10:47:06.006Z,102199.98
2022-10-18T10:49:48.496Z,102197.16
2022-10-18T10:52:36.555Z,102193.74
2022-10-18T10:55:34.767Z,102185.73
2022-10-18T10:58:18.530Z,102175.84
2022-10-18T11:00:50.705Z,102173.70
2022-10-18T11:03:29.457Z,102172.88
2022-10-18T11:06:02.324Z,102169.48
2022-10-18T11:08:39.720Z,102162.69
2022-10-18T11:11:23.083Z,102161.17
2022-10-18T11:17:08.157Z,102148.90
2022-10-18T11:19:51.345Z,102149.86
2022-10-18T11:22:26.872Z,102146.14
2022-10-18T11:24:58.960Z,102139.40
2022-10-18T11:27:36.220Z,102134.86
2022-10-18T11:30:21.184Z,102127.95
2022-10-18T11:33:04.331Z,102121.42
2022-10-18T11:35:47.010Z,102117.27
2022-10-18T11:38:31.072Z,102110.86
2022-10-18T11:41:22.648Z,102103.89
2022-10-18T11:44:03.556Z,102090.40
2022-10-18T11:46:47.530Z,102082.54
2022-10-18T11:49:46.295Z,102075.77
2022-10-18T11:52:28.797Z,102069.08
2022-10-18T11:55:30.317Z,102065.52
2022-10-18T11:58:16.048Z,102064.63
2022-10-18T12:00:52.447Z,102058.80
2022-10-18T12:03:35.320Z,102055.87
2022-10-18T12:06:13.593Z,102050.59
2022-10-18T12:08:49.350Z,102048.17
2022-10-18T12:11:25.856Z,102042.32
2022-10-18T12:14:00.872Z,102039.80
2022-10-18T12:16:51.062Z,102039.73
2022-10-18T12:19:27.569Z,102039.36
2022-10-18T12:22:04.134Z,102037.64
2022-10-18T12:24:37.228Z,102028.25
2022-10-18T12:27:12.968Z,102025.56
2022-10-18T12:29:52.285Z,102021.55
2022-10-18T12:32:31.231Z,102017.33
2022-10-18T12:35:08.437Z,102014.50
2022-10-18T12:38:00.699Z,102011.16
2022-10-18T12:40:39.182Z,102008.35
2022-10-18T12:43:22.828Z,102001.61
2022-10-18T12:45:57.469Z,102001.83
2022-10-18T12:48:38.771Z,101998.46
2022-10-18T12:51:18.515Z,101992.13
2022-10-18T12:53:55.855Z,101989.29
2022-10-18T12:56:43.460Z,101985.54
2022-10-18T12:59:52.314Z,101974.60
2022-10-18T13:02:32.889Z,101981.44
2022-10-18T13:05:55.638Z,101982.41
2022-10-18T13:08:43.371Z,101982.38
2022-10-18T13:11:36.040Z,101979.81
2022-10-18T13:14:36.317Z,101972.23
2022-10-18T13:17:22.729Z,101972.23
2022-10-18T13:20:24.603Z,101964.51
2022-10-18T13:23:09.356Z,101963.52
2022-10-18T13:25:59.151Z,101961.05
2022-10-18T13:28:38.838Z,101958.52
2022-10-18T13:31:20.788Z,101951.60
2022-10-18T13:33:55.466Z,101947.16
2022-10-18T13:36:33.624Z,101942.18
2022-10-18T13:39:19.812Z,101939.85
2022-10-18T13:42:28.700Z,101931.30
2022-10-18T13:45:27.539Z,101928.23
2022-10-18T13:48:20.375Z,101924.66
2022-10-18T13:50:52.961Z,101924.30
2022-10-18T13:53:47.034Z,101914.52
2022-10-18T13:56:45.763Z,101916.74
2022-10-18T13:59:40.541Z,101910.25
2022-10-18T14:02:52.353Z,101909.10
2022-10-18T14:05:47.048Z,101907.05
2022-10-18T14:08:26.185Z,101902.91
2022-10-18T14:11:07.560Z,101897.62
2022-10-18T14:13:48.431Z,101898.29
2022-10-18T14:16:40.137Z,101892.80
2022-10-18T14:19:22.647Z,101889.11
2022-10-18T14:21:59.567Z,101881.68
2022-10-18T14:24:32.811Z,101877.68
2022-10-18T14:27:17.983Z,101874.78
2022-10-18T14:29:51.578Z,101873.84
2022-10-18T14:32:28.757Z,101866.11
2022-10-18T14:35:30.634Z,101863.64
2022-10-18T14:37:55.772Z,101864.31
2022-10-18T14:40:38.195Z,101860.48
2022-10-18T14:43:15.183Z,101855.91
2022-10-18T14:45:47.640Z,101852.72
2022-10-18T14:48:23.820Z,101852.45
2022-10-18T14:51:01.061Z,101851.38
2022-10-18T14:53:38.741Z,101847.89
2022-10-18T14:56:21.055Z,101844.56
2022-10-18T14:58:54.425Z,101844.45
2022-10-18T15:01:30.763Z,101839.12
2022-10-18T15:04:06.338Z,101839.83
2022-10-18T15:06:42.899Z,101842.04
2022-10-18T15:09:22.011Z,101837.64
2022-10-18T15:11:57.882Z,101834.73
2022-10-18T15:14:31.920Z,101834.55
2022-10-18T15:17:09.730Z,101828.21
2022-10-18T15:19:54.314Z,101831.48
2022-10-18T15:22:32.425Z,101829.36
2022-10-18T15:25:18.215Z,101828.70
2022-10-18T15:27:52.671Z,101827.86
2022-10-18T15:30:29.024Z,101823.93
2022-10-18T15:33:02.884Z,101828.21
2022-10-18T15:35:37.088Z,101826.45
2022-10-18T15:38:25.849Z,101825.49
2022-10-18T15:40:58.727Z,101824.61
2022-10-18T15:43:39.849Z,101821.35
2022-10-18T15:46:33.330Z,101821.10
2022-10-18T15:49:52.581Z,101818.67
2022-10-18T15:52:44.485Z,101818.55
2022-10-18T15:55:57.042Z,101817.55
2022-10-18T15:58:32.100Z,101814.61
2022-10-18T16:01:05.234Z,101815.77
2022-10-18T16:03:39.827Z,101819.59
2022-10-18T16:06:15.995Z,101818.19
2022-10-18T16:08:51.929Z,101817.63
2022-10-18T16:11:26.385Z,101818.17
2022-10-18T16:14:00.439Z,101815.62
2022-10-18T16:16:33.002Z,101819.27
2022-10-18T16:19:05.734Z,101822.56
2022-10-18T16:21:39.945Z,101822.30
2022-10-18T16:24:12.095Z,101821.39
2022-10-18T16:26:44.343Z,101823.98
2022-10-18T16:29:19.477Z,101820.41
2022-10-18T16:31:53.688Z,101819.64
2022-10-18T16:34:27.789Z,101818.88
2022-10-18T16:36:59.981Z,101814.11
2022-10-18T16:39:35.129Z,101803.56
2022-10-18T16:42:07.209Z,101810.90
2022-10-18T16:44:39.244Z,101808.99
2022-10-18T16:47:12.913Z,101807.00
2022-10-18T16:49:45.489Z,101809.04
2022-10-18T16:52:17.493Z,101810.61
2022-10-18T16:54:49.470Z,101806.12
2022-10-18T16:57:21.541Z,101802.83
2022-10-18T16:59:53.601Z,101804.43
2022-10-18T17:02:25.851Z,101802.44
2022-10-18T17:04:57.906Z,101801.99
2022-10-18T17:07:30.109Z,101797.95
2022-10-18T17:10:02.168Z,101799.20
2022-10-18T17:12:34.597Z,101794.27
2022-10-18T17:15:08.697Z,101789.24
2022-10-18T17:17:41.235Z,101783.55
2022-10-18T17:20:20.478Z,101781.30
2022-10-18T17:22:53.175Z,101777.16
2022-10-18T17:25:25.315Z,101776.13
2022-10-18T17:27:57.412Z,101774.33
2022-10-18T17:30:29.445Z,101765.97
2022-10-18T17:33:01.948Z,101763.63
2022-10-18T17:35:34.676Z,101756.77
2022-10-18T17:38:07.838Z,101755.16
2022-10-18T17:40:43.003Z,101758.52
2022-10-18T17:43:15.140Z,101753.85
2022-10-18T17:45:51.595Z,101753.70
2022-10-18T17:48:24.620Z,101754.48
2022-10-18T17:50:57.250Z,101752.14
2022-10-18T17:53:30.895Z,101749.88
2022-10-18T17:56:04.576Z,101749.52
2022-10-18T17:58:37.373Z,101746.10
2022-10-18T18:01:15.068Z,101745.50
2022-10-18T18:03:48.802Z,101738.99
2022-10-18T18:06:23.558Z,101739.30
2022-10-18T18:08:56.313Z,101733.16
2022-10-18T18:11:28.861Z,101732.48
2022-10-18T18:14:01.284Z,101729.94
2022-10-18T18:16:33.395Z,101728.09
2022-10-18T18:19:09.700Z,101725.80
2022-10-18T18:21:46.309Z,101722.77
2022-10-18T18:24:24.587Z,101721.63
2022-10-18T18:26:57.586Z,101717.06
2022-10-18T18:29:30.520Z,101715.45
2022-10-18T18:32:03.536Z,101713.84
2022-10-18T18:34:36.739Z,101709.02
2022-10-18T18:37:09.364Z,101710.84
2022-10-18T18:39:41.630Z,101705.95
2022-10-18T18:42:13.753Z,101705.04
2022-10-18T18:44:46.173Z,101700.45
2022-10-18T18:47:21.888Z,101698.48
2022-10-18T18:49:54.293Z,101696.65
2022-10-18T18:52:26.787Z,101694.30
2022-10-18T18:54:58.861Z,101685.60
2022-10-18T18:57:31.221Z,101686.40
2022-10-18T19:00:03.575Z,101683.77
2022-10-18T19:02:36.068Z,101683.90
2022-10-18T19:05:08.812Z,101680.23
2022-10-18T19:07:41.725Z,101674.88
2022-10-18T19:10:13.960Z,101675.75
2022-10-18T19:12:46.151Z,101676.06
2022-10-18T19:15:18.493Z,101671.27
2022-10-18T19:17:51.195Z,101667.33
2022-10-18T19:20:23.485Z,101664.80
2022-10-18T19:22:55.633Z,101664.39
2022-10-18T19:25:27.771Z,101663.74
2022-10-18T19:27:59.924Z,101659.00
2022-10-18T19:30:32.084Z,101655.48
2022-10-18T19:33:04.851Z,101649.05
2022-10-18T19:35:37.451Z,101652.55
2022-10-18T19:38:09.562Z,101651.91
2022-10-18T19:40:41.862Z,101644.55
2022-10-18T19:43:14.026Z,101641.13
2022-10-18T19:45:46.110Z,101638.23
2022-10-18T19:48:18.388Z,101638.63
2022-10-18T19:50:50.926Z,101636.17
2022-10-18T19:53:23.020Z,101632.11
2022-10-18T19:56:00.486Z,101632.39
2022-10-18T19:58:32.941Z,101633.63
2022-10-18T20:01:05.082Z,101632.58
2022-10-18T20:03:38.031Z,101629.92
2022-10-18T20:06:10.508Z,101616.00
2022-10-18T20:08:43.535Z,101619.73
2022-10-18T20:11:17.741Z,101616.17
2022-10-18T20:13:50.715Z,101611.73
2022-10-18T20:16:28.211Z,101615.22
2022-10-18T20:19:02.787Z,101609.83
2022-10-18T20:21:36.677Z,101608.23
2022-10-18T20:24:10.077Z,101606.20
2022-10-18T20:26:43.942Z,101602.23
2022-10-18T20:29:16.141Z,101603.02
2022-10-18T20:31:48.665Z,101603.59
2022-10-18T20:34:25.754Z,101601.13
2022-10-18T20:36:58.470Z,101596.91
2022-10-18T20:39:30.588Z,101594.90
2022-10-18T20:42:02.967Z,101589.31
2022-10-18T20:44:34.986Z,101587.99
2022-10-18T20:47:06.968Z,101582.38
2022-10-18T20:49:39.459Z,101585.02
2022-10-18T20:52:12.270Z,101583.20
2022-10-18T20:54:44.254Z,101577.45
2022-10-18T20:57:16.290Z,101577.00
2022-10-18T20:59:49.510Z,101574.67
2022-10-18T21:02:21.555Z,101574.41
2022-10-18T21:04:53.586Z,101574.45
2022-10-18T21:07:25.684Z,101571.95
2022-10-18T21:09:57.947Z,101568.20
2022-10-18T21:12:30.272Z,101566.48
2022-10-18T21:15:02.753Z,101561.70
2022-10-18T21:17:34.840Z,101561.70
2022-10-18T21:20:08.783Z,101554.46
2022-10-18T21:22:40.732Z,101549.18
2022-10-18T21:25:13.173Z,101547.69
2022-10-18T21:27:45.204Z,101542.36
2022-10-18T21:30:17.364Z,101542.81
2022-10-18T21:32:52.567Z,101541.10
2022-10-18T21:35:24.636Z,101538.12
2022-10-18T21:37:56.743Z,101535.23
2022-10-18T21:40:28.802Z,101530.39
2022-10-18T21:43:00.859Z,101528.20
2022-10-18T21:45:33.169Z,101526.58
2022-10-18T21:48:05.674Z,101526.52
2022-10-18T21:50:40.841Z,101520.73
2022-10-18T21:53:13.815Z,101518.23
2022-10-18T21:55:45.898Z,101509.13
2022-10-18T21:58:17.962Z,101508.48
2022-10-18T22:00:50.154Z,101506.13
2022-10-18T22:03:23.492Z,101500.21
2022-10-18T22:06:03.183Z,101492.86
2022-10-18T22:08:35.663Z,101490.75
2022-10-18T22:11:07.850Z,101488.60
2022-10-18T22:13:40.468Z,101488.15
2022-10-18T22:16:15.486Z,101482.64
2022-10-18T22:18:50.080Z,101479.63
2022-10-18T22:21:23.414Z,101473.50
2022-10-18T22:23:58.098Z,101473.95
2022-10-18T22:26:31.694Z,101468.30
2022-10-18T22:29:05.706Z,101461.72
2022-10-18T22:31:40.418Z,101454.72
2022-10-18T22:34:16.705Z,101450.04
2022-10-18T22:36:48.870Z,101444.32
2022-10-18T22:39:21.431Z,101441.58
2022-10-18T22:41:56.444Z,101435.15
2022-10-18T22:44:28.525Z,101431.45
2022-10-18T22:47:00.675Z,101428.08
2022-10-18T22:49:32.678Z,101427.83
2022-10-18T22:52:05.086Z,101420.02
2022-10-18T22:54:37.133Z,101415.30
2022-10-18T22:57:09.160Z,101409.11
2022-10-18T22:59:41.528Z,101407.91
2022-10-18T23:02:13.544Z,101406.88
2022-10-18T23:04:45.860Z,101402.77
2022-10-18T23:07:17.945Z,101404.02
2022-10-18T23:09:50.068Z,101396.15
2022-10-18T23:12:22.123Z,101396.47
2022-10-18T23:14:54.168Z,101395.48
2022-10-18T23:17:26.323Z,101392.12
2022-10-18T23:19:58.852Z,101392.91
2022-10-18T23:22:31.199Z,101394.30
2022-10-18T23:25:03.543Z,101387.04
2022-10-18T23:27:35.623Z,101384.31
2022-10-18T23:30:09.718Z,101383.11
2022-10-18T23:32:42.390Z,101380.89
2022-10-18T23:35:14.876Z,101379.09
2022-10-18T23:37:47.859Z,101374.21
2022-10-18T23:40:20.535Z,101368.80
2022-10-18T23:42:52.564Z,101369.94
2022-10-18T23:45:24.633Z,101361.59
2022-10-18T23:47:56.777Z,101364.78
2022-10-18T23:50:28.874Z,101365.55
2022-10-18T23:53:01.059Z,101366.24
2022-10-18T23:55:33.175Z,101366.40
2022-10-18T23:58:05.714Z,101361.95
